Starlight, Indiana
Current Conditions -  °F | °C
As of 5:53 PM on Saturday 25 Oct 2014 (Local Time) from KLOU Reporting Station
Clear Clear  
Wind Chill: 75°   Ceiling: Unl
Heat Index: 75°   Visibility: 10mi
Dew Point: 58°   Wind: 7mph
Humidity: 55%   Direction: 250°WSW
Pressure: 29.96"   Gusts: NA
Location:  38.4554°N, 85.9137°W
Report Text: KLOU 252153Z 25006KT 10SM CLR 24/14 A2996 RMK AO2 SLP145 T02390144
Loading
Personal Weather Stations






























Interactive Weather Map
Tropical Storm Tracking
New forecast layout! Learn more

10-Day Weather Forecast

Advertisements
Track Severe Weather on mobile